sensor_id;sensor_type;location;lat;lon;timestamp;P1;durP1;ratioP1;P2;durP2;ratioP2
37297;SDS011;30517;51.932;4.278;2022-11-20T00:01:10;10.25;;;5.38;;
37297;SDS011;30517;51.932;4.278;2022-11-20T00:03:53;8.77;;;5.60;;
37297;SDS011;30517;51.932;4.278;2022-11-20T00:06:35;9.63;;;5.43;;
37297;SDS011;30517;51.932;4.278;2022-11-20T00:09:16;9.60;;;5.75;;
37297;SDS011;30517;51.932;4.278;2022-11-20T00:11:57;8.30;;;5.63;;
37297;SDS011;30517;51.932;4.278;2022-11-20T00:14:37;9.18;;;6.22;;
37297;SDS011;30517;51.932;4.278;2022-11-20T00:17:19;10.40;;;5.80;;
37297;SDS011;30517;51.932;4.278;2022-11-20T00:19:59;10.40;;;6.00;;
37297;SDS011;30517;51.932;4.278;2022-11-20T00:22:40;8.57;;;5.95;;
37297;SDS011;30517;51.932;4.278;2022-11-20T00:25:21;9.45;;;5.70;;
37297;SDS011;30517;51.932;4.278;2022-11-20T00:28:01;9.50;;;5.55;;
37297;SDS011;30517;51.932;4.278;2022-11-20T00:30:42;9.43;;;5.80;;
37297;SDS011;30517;51.932;4.278;2022-11-20T00:33:23;8.88;;;5.20;;
37297;SDS011;30517;51.932;4.278;2022-11-20T00:36:11;9.35;;;5.53;;
37297;SDS011;30517;51.932;4.278;2022-11-20T00:38:55;10.13;;;6.25;;
37297;SDS011;30517;51.932;4.278;2022-11-20T00:41:37;10.30;;;6.22;;
37297;SDS011;30517;51.932;4.278;2022-11-20T00:44:18;10.15;;;5.95;;
37297;SDS011;30517;51.932;4.278;2022-11-20T00:46:59;9.73;;;6.28;;
37297;SDS011;30517;51.932;4.278;2022-11-20T00:49:39;9.60;;;5.68;;
37297;SDS011;30517;51.932;4.278;2022-11-20T00:52:20;9.52;;;5.85;;
37297;SDS011;30517;51.932;4.278;2022-11-20T00:55:01;9.57;;;5.93;;
37297;SDS011;30517;51.932;4.278;2022-11-20T00:57:41;9.07;;;5.50;;
37297;SDS011;30517;51.932;4.278;2022-11-20T01:00:22;8.85;;;5.45;;
37297;SDS011;30517;51.932;4.278;2022-11-20T01:03:03;9.48;;;5.63;;
37297;SDS011;30517;51.932;4.278;2022-11-20T01:05:44;10.13;;;5.55;;
37297;SDS011;30517;51.932;4.278;2022-11-20T01:08:24;8.27;;;5.50;;
37297;SDS011;30517;51.932;4.278;2022-11-20T01:11:06;11.93;;;5.85;;
37297;SDS011;30517;51.932;4.278;2022-11-20T01:13:52;9.95;;;6.28;;
37297;SDS011;30517;51.932;4.278;2022-11-20T01:16:34;9.77;;;6.00;;
37297;SDS011;30517;51.932;4.278;2022-11-20T01:21:59;8.45;;;4.40;;
37297;SDS011;30517;51.932;4.278;2022-11-20T01:24:40;9.40;;;5.60;;
37297;SDS011;30517;51.932;4.278;2022-11-20T01:27:20;11.55;;;6.50;;
37297;SDS011;30517;51.932;4.278;2022-11-20T01:30:01;8.13;;;4.90;;
37297;SDS011;30517;51.932;4.278;2022-11-20T01:32:42;10.05;;;5.57;;
37297;SDS011;30517;51.932;4.278;2022-11-20T01:35:23;8.82;;;5.07;;
37297;SDS011;30517;51.932;4.278;2022-11-20T01:38:03;9.60;;;6.60;;
37297;SDS011;30517;51.932;4.278;2022-11-20T01:40:44;9.02;;;5.32;;
37297;SDS011;30517;51.932;4.278;2022-11-20T01:43:25;10.80;;;5.75;;
37297;SDS011;30517;51.932;4.278;2022-11-20T01:46:16;9.25;;;5.85;;
37297;SDS011;30517;51.932;4.278;2022-11-20T01:49:08;9.80;;;5.82;;
37297;SDS011;30517;51.932;4.278;2022-11-20T01:51:57;9.80;;;5.13;;
37297;SDS011;30517;51.932;4.278;2022-11-20T01:54:43;10.75;;;5.55;;
37297;SDS011;30517;51.932;4.278;2022-11-20T01:57:31;10.38;;;6.05;;
37297;SDS011;30517;51.932;4.278;2022-11-20T02:00:16;10.73;;;6.13;;
37297;SDS011;30517;51.932;4.278;2022-11-20T02:03:00;9.50;;;5.80;;
37297;SDS011;30517;51.932;4.278;2022-11-20T02:05:45;8.50;;;5.38;;
37297;SDS011;30517;51.932;4.278;2022-11-20T02:08:32;10.30;;;5.82;;
37297;SDS011;30517;51.932;4.278;2022-11-20T02:11:13;9.70;;;5.70;;
37297;SDS011;30517;51.932;4.278;2022-11-20T02:13:54;9.02;;;5.75;;
37297;SDS011;30517;51.932;4.278;2022-11-20T02:16:45;9.85;;;5.78;;
37297;SDS011;30517;51.932;4.278;2022-11-20T02:19:29;8.73;;;5.55;;
37297;SDS011;30517;51.932;4.278;2022-11-20T02:22:14;9.23;;;5.70;;
37297;SDS011;30517;51.932;4.278;2022-11-20T02:25:02;9.50;;;5.72;;
37297;SDS011;30517;51.932;4.278;2022-11-20T02:27:44;9.88;;;5.65;;
37297;SDS011;30517;51.932;4.278;2022-11-20T02:30:25;9.13;;;5.32;;
37297;SDS011;30517;51.932;4.278;2022-11-20T02:33:05;9.52;;;6.10;;
37297;SDS011;30517;51.932;4.278;2022-11-20T02:35:46;9.35;;;5.70;;
37297;SDS011;30517;51.932;4.278;2022-11-20T02:38:27;8.55;;;5.28;;
37297;SDS011;30517;51.932;4.278;2022-11-20T02:41:08;10.68;;;5.47;;
37297;SDS011;30517;51.932;4.278;2022-11-20T02:43:49;9.95;;;5.97;;
37297;SDS011;30517;51.932;4.278;2022-11-20T02:46:30;9.50;;;5.40;;
37297;SDS011;30517;51.932;4.278;2022-11-20T02:49:11;8.60;;;5.00;;
37297;SDS011;30517;51.932;4.278;2022-11-20T02:51:52;9.88;;;5.97;;
37297;SDS011;30517;51.932;4.278;2022-11-20T02:54:33;8.48;;;5.78;;
37297;SDS011;30517;51.932;4.278;2022-11-20T02:57:14;8.85;;;5.70;;
37297;SDS011;30517;51.932;4.278;2022-11-20T02:59:54;10.07;;;5.65;;
37297;SDS011;30517;51.932;4.278;2022-11-20T03:02:35;7.20;;;4.68;;
37297;SDS011;30517;51.932;4.278;2022-11-20T03:05:16;9.20;;;5.53;;
37297;SDS011;30517;51.932;4.278;2022-11-20T03:07:57;9.95;;;5.90;;
37297;SDS011;30517;51.932;4.278;2022-11-20T03:10:38;9.50;;;5.22;;
37297;SDS011;30517;51.932;4.278;2022-11-20T03:13:18;10.18;;;6.43;;
37297;SDS011;30517;51.932;4.278;2022-11-20T03:16:06;9.60;;;5.55;;
37297;SDS011;30517;51.932;4.278;2022-11-20T03:18:49;9.50;;;5.43;;
37297;SDS011;30517;51.932;4.278;2022-11-20T03:21:30;8.38;;;5.72;;
37297;SDS011;30517;51.932;4.278;2022-11-20T03:24:10;8.80;;;5.60;;
37297;SDS011;30517;51.932;4.278;2022-11-20T03:26:51;10.25;;;5.90;;
37297;SDS011;30517;51.932;4.278;2022-11-20T03:29:32;8.45;;;4.93;;
37297;SDS011;30517;51.932;4.278;2022-11-20T03:32:13;7.97;;;5.28;;
37297;SDS011;30517;51.932;4.278;2022-11-20T03:34:54;10.38;;;6.65;;
37297;SDS011;30517;51.932;4.278;2022-11-20T03:37:34;9.45;;;5.85;;
37297;SDS011;30517;51.932;4.278;2022-11-20T03:40:15;8.68;;;5.32;;
37297;SDS011;30517;51.932;4.278;2022-11-20T03:42:56;10.65;;;6.10;;
37297;SDS011;30517;51.932;4.278;2022-11-20T03:45:37;9.40;;;5.22;;
37297;SDS011;30517;51.932;4.278;2022-11-20T03:48:17;10.27;;;5.72;;
37297;SDS011;30517;51.932;4.278;2022-11-20T03:51:18;7.68;;;5.18;;
37297;SDS011;30517;51.932;4.278;2022-11-20T03:54:01;9.52;;;5.03;;
37297;SDS011;30517;51.932;4.278;2022-11-20T03:59:24;8.48;;;4.60;;
37297;SDS011;30517;51.932;4.278;2022-11-20T04:02:08;9.38;;;5.82;;
37297;SDS011;30517;51.932;4.278;2022-11-20T04:04:48;9.38;;;5.32;;
37297;SDS011;30517;51.932;4.278;2022-11-20T04:07:29;9.82;;;5.95;;
37297;SDS011;30517;51.932;4.278;2022-11-20T04:10:10;8.73;;;5.10;;
37297;SDS011;30517;51.932;4.278;2022-11-20T04:12:51;9.60;;;5.53;;
37297;SDS011;30517;51.932;4.278;2022-11-20T04:15:32;9.82;;;5.97;;
37297;SDS011;30517;51.932;4.278;2022-11-20T04:18:12;9.75;;;5.45;;
37297;SDS011;30517;51.932;4.278;2022-11-20T04:20:53;8.68;;;5.32;;
37297;SDS011;30517;51.932;4.278;2022-11-20T04:23:34;8.60;;;4.88;;
37297;SDS011;30517;51.932;4.278;2022-11-20T04:26:15;8.60;;;5.18;;
37297;SDS011;30517;51.932;4.278;2022-11-20T04:28:56;10.30;;;6.40;;
37297;SDS011;30517;51.932;4.278;2022-11-20T04:31:38;9.23;;;5.60;;
37297;SDS011;30517;51.932;4.278;2022-11-20T04:34:18;9.70;;;5.28;;
37297;SDS011;30517;51.932;4.278;2022-11-20T04:37:00;8.60;;;4.93;;
37297;SDS011;30517;51.932;4.278;2022-11-20T04:39:41;8.43;;;4.78;;
37297;SDS011;30517;51.932;4.278;2022-11-20T04:42:22;9.98;;;5.57;;
37297;SDS011;30517;51.932;4.278;2022-11-20T04:45:09;9.65;;;5.95;;
37297;SDS011;30517;51.932;4.278;2022-11-20T04:47:50;9.00;;;5.40;;
37297;SDS011;30517;51.932;4.278;2022-11-20T04:50:30;8.80;;;5.47;;
37297;SDS011;30517;51.932;4.278;2022-11-20T04:53:11;8.48;;;4.95;;
37297;SDS011;30517;51.932;4.278;2022-11-20T04:55:52;8.85;;;5.10;;
37297;SDS011;30517;51.932;4.278;2022-11-20T04:58:43;10.48;;;5.80;;
37297;SDS011;30517;51.932;4.278;2022-11-20T05:01:24;9.60;;;5.57;;
37297;SDS011;30517;51.932;4.278;2022-11-20T05:04:05;7.97;;;5.15;;
37297;SDS011;30517;51.932;4.278;2022-11-20T05:06:46;9.32;;;5.38;;
37297;SDS011;30517;51.932;4.278;2022-11-20T05:09:26;9.93;;;5.97;;
37297;SDS011;30517;51.932;4.278;2022-11-20T05:12:07;9.23;;;5.22;;
37297;SDS011;30517;51.932;4.278;2022-11-20T05:14:49;9.48;;;5.63;;
37297;SDS011;30517;51.932;4.278;2022-11-20T05:17:30;8.57;;;5.32;;
37297;SDS011;30517;51.932;4.278;2022-11-20T05:20:11;8.50;;;5.18;;
37297;SDS011;30517;51.932;4.278;2022-11-20T05:22:51;9.48;;;5.78;;
37297;SDS011;30517;51.932;4.278;2022-11-20T05:25:32;10.57;;;5.80;;
37297;SDS011;30517;51.932;4.278;2022-11-20T05:28:13;9.93;;;5.43;;
37297;SDS011;30517;51.932;4.278;2022-11-20T05:30:54;8.68;;;5.30;;
37297;SDS011;30517;51.932;4.278;2022-11-20T05:33:35;8.75;;;5.20;;
37297;SDS011;30517;51.932;4.278;2022-11-20T05:36:16;8.82;;;5.28;;
37297;SDS011;30517;51.932;4.278;2022-11-20T05:38:57;10.00;;;5.35;;
37297;SDS011;30517;51.932;4.278;2022-11-20T05:41:38;8.35;;;5.13;;
37297;SDS011;30517;51.932;4.278;2022-11-20T05:44:19;9.65;;;5.97;;
37297;SDS011;30517;51.932;4.278;2022-11-20T05:46:59;9.60;;;5.30;;
37297;SDS011;30517;51.932;4.278;2022-11-20T05:49:41;9.15;;;5.68;;
37297;SDS011;30517;51.932;4.278;2022-11-20T05:52:22;9.20;;;5.15;;
37297;SDS011;30517;51.932;4.278;2022-11-20T05:55:03;8.15;;;4.75;;
37297;SDS011;30517;51.932;4.278;2022-11-20T05:57:44;11.18;;;5.15;;
37297;SDS011;30517;51.932;4.278;2022-11-20T06:00:24;8.88;;;5.68;;
37297;SDS011;30517;51.932;4.278;2022-11-20T06:03:05;10.00;;;5.93;;
37297;SDS011;30517;51.932;4.278;2022-11-20T06:05:46;8.38;;;5.25;;
37297;SDS011;30517;51.932;4.278;2022-11-20T06:08:27;8.13;;;5.32;;
37297;SDS011;30517;51.932;4.278;2022-11-20T06:11:09;7.13;;;4.57;;
37297;SDS011;30517;51.932;4.278;2022-11-20T06:16:33;8.27;;;4.88;;
37297;SDS011;30517;51.932;4.278;2022-11-20T06:19:13;8.82;;;5.68;;
37297;SDS011;30517;51.932;4.278;2022-11-20T06:21:55;9.07;;;5.57;;
37297;SDS011;30517;51.932;4.278;2022-11-20T06:24:35;9.20;;;5.90;;
37297;SDS011;30517;51.932;4.278;2022-11-20T06:27:16;9.30;;;5.63;;
37297;SDS011;30517;51.932;4.278;2022-11-20T06:29:57;9.32;;;5.63;;
37297;SDS011;30517;51.932;4.278;2022-11-20T06:32:38;8.43;;;5.15;;
37297;SDS011;30517;51.932;4.278;2022-11-20T06:35:18;8.25;;;4.72;;
37297;SDS011;30517;51.932;4.278;2022-11-20T06:37:59;9.38;;;5.43;;
37297;SDS011;30517;51.932;4.278;2022-11-20T06:40:40;9.00;;;5.43;;
37297;SDS011;30517;51.932;4.278;2022-11-20T06:43:22;11.02;;;5.43;;
37297;SDS011;30517;51.932;4.278;2022-11-20T06:46:03;7.97;;;5.07;;
37297;SDS011;30517;51.932;4.278;2022-11-20T06:48:44;10.38;;;5.95;;
37297;SDS011;30517;51.932;4.278;2022-11-20T06:51:25;9.73;;;5.97;;
37297;SDS011;30517;51.932;4.278;2022-11-20T06:54:06;8.65;;;4.57;;
37297;SDS011;30517;51.932;4.278;2022-11-20T06:56:47;9.88;;;5.45;;
37297;SDS011;30517;51.932;4.278;2022-11-20T06:59:28;9.90;;;5.18;;
37297;SDS011;30517;51.932;4.278;2022-11-20T07:02:12;9.52;;;5.15;;
37297;SDS011;30517;51.932;4.278;2022-11-20T07:04:53;9.93;;;6.03;;
37297;SDS011;30517;51.932;4.278;2022-11-20T07:07:33;9.00;;;5.35;;
37297;SDS011;30517;51.932;4.278;2022-11-20T07:10:14;8.48;;;5.00;;
37297;SDS011;30517;51.932;4.278;2022-11-20T07:12:55;8.65;;;4.93;;
37297;SDS011;30517;51.932;4.278;2022-11-20T07:15:36;8.38;;;5.00;;
37297;SDS011;30517;51.932;4.278;2022-11-20T07:18:17;9.55;;;5.03;;
37297;SDS011;30517;51.932;4.278;2022-11-20T07:21:01;9.15;;;5.15;;
37297;SDS011;30517;51.932;4.278;2022-11-20T07:23:43;7.47;;;4.72;;
37297;SDS011;30517;51.932;4.278;2022-11-20T07:26:24;9.82;;;5.38;;
37297;SDS011;30517;51.932;4.278;2022-11-20T07:29:04;10.35;;;5.63;;
37297;SDS011;30517;51.932;4.278;2022-11-20T07:31:45;10.20;;;5.60;;
37297;SDS011;30517;51.932;4.278;2022-11-20T07:34:26;9.65;;;5.65;;
37297;SDS011;30517;51.932;4.278;2022-11-20T07:37:10;9.57;;;5.68;;
37297;SDS011;30517;51.932;4.278;2022-11-20T07:39:50;10.57;;;5.22;;
37297;SDS011;30517;51.932;4.278;2022-11-20T07:42:31;8.73;;;4.78;;
37297;SDS011;30517;51.932;4.278;2022-11-20T07:45:12;8.52;;;4.78;;
37297;SDS011;30517;51.932;4.278;2022-11-20T07:47:53;9.27;;;5.47;;
37297;SDS011;30517;51.932;4.278;2022-11-20T07:50:33;9.88;;;5.30;;
37297;SDS011;30517;51.932;4.278;2022-11-20T07:53:14;8.73;;;4.80;;
37297;SDS011;30517;51.932;4.278;2022-11-20T07:56:00;8.45;;;5.97;;
37297;SDS011;30517;51.932;4.278;2022-11-20T07:58:42;10.85;;;6.03;;
37297;SDS011;30517;51.932;4.278;2022-11-20T08:01:23;8.88;;;5.95;;
37297;SDS011;30517;51.932;4.278;2022-11-20T08:04:04;8.82;;;5.20;;
37297;SDS011;30517;51.932;4.278;2022-11-20T08:06:44;11.18;;;6.07;;
37297;SDS011;30517;51.932;4.278;2022-11-20T08:09:25;11.05;;;5.78;;
37297;SDS011;30517;51.932;4.278;2022-11-20T08:12:06;9.20;;;5.40;;
37297;SDS011;30517;51.932;4.278;2022-11-20T08:15:06;10.18;;;5.35;;
37297;SDS011;30517;51.932;4.278;2022-11-20T08:17:47;9.25;;;5.38;;
37297;SDS011;30517;51.932;4.278;2022-11-20T08:20:28;9.75;;;5.72;;
37297;SDS011;30517;51.932;4.278;2022-11-20T08:23:09;8.77;;;5.10;;
37297;SDS011;30517;51.932;4.278;2022-11-20T08:25:50;9.25;;;5.53;;
37297;SDS011;30517;51.932;4.278;2022-11-20T08:28:31;10.15;;;5.45;;
37297;SDS011;30517;51.932;4.278;2022-11-20T08:31:11;8.70;;;5.57;;
37297;SDS011;30517;51.932;4.278;2022-11-20T08:33:52;11.30;;;5.63;;
37297;SDS011;30517;51.932;4.278;2022-11-20T08:36:33;9.38;;;5.30;;
37297;SDS011;30517;51.932;4.278;2022-11-20T08:39:15;10.55;;;5.75;;
37297;SDS011;30517;51.932;4.278;2022-11-20T08:41:56;9.25;;;5.82;;
37297;SDS011;30517;51.932;4.278;2022-11-20T08:44:37;8.85;;;5.20;;
37297;SDS011;30517;51.932;4.278;2022-11-20T08:47:17;10.63;;;6.10;;
37297;SDS011;30517;51.932;4.278;2022-11-20T08:49:58;7.80;;;4.95;;
37297;SDS011;30517;51.932;4.278;2022-11-20T08:52:39;9.63;;;5.72;;
37297;SDS011;30517;51.932;4.278;2022-11-20T08:55:20;9.68;;;6.22;;
37297;SDS011;30517;51.932;4.278;2022-11-20T08:58:04;11.35;;;6.13;;
37297;SDS011;30517;51.932;4.278;2022-11-20T09:00:45;9.35;;;5.55;;
37297;SDS011;30517;51.932;4.278;2022-11-20T09:03:26;9.15;;;5.60;;
37297;SDS011;30517;51.932;4.278;2022-11-20T09:06:07;10.60;;;6.10;;
37297;SDS011;30517;51.932;4.278;2022-11-20T09:08:51;10.15;;;6.03;;
37297;SDS011;30517;51.932;4.278;2022-11-20T09:11:34;9.23;;;5.70;;
37297;SDS011;30517;51.932;4.278;2022-11-20T09:14:15;13.25;;;7.05;;
37297;SDS011;30517;51.932;4.278;2022-11-20T09:16:56;7.90;;;5.78;;
37297;SDS011;30517;51.932;4.278;2022-11-20T09:19:37;9.35;;;5.90;;
37297;SDS011;30517;51.932;4.278;2022-11-20T09:22:18;9.35;;;5.88;;
37297;SDS011;30517;51.932;4.278;2022-11-20T09:24:59;10.35;;;5.90;;
37297;SDS011;30517;51.932;4.278;2022-11-20T09:27:39;9.82;;;5.75;;
37297;SDS011;30517;51.932;4.278;2022-11-20T09:30:23;10.98;;;6.90;;
37297;SDS011;30517;51.932;4.278;2022-11-20T09:33:05;9.88;;;5.95;;
37297;SDS011;30517;51.932;4.278;2022-11-20T09:35:46;11.43;;;6.45;;
37297;SDS011;30517;51.932;4.278;2022-11-20T09:38:27;10.68;;;6.47;;
37297;SDS011;30517;51.932;4.278;2022-11-20T09:41:13;10.07;;;5.70;;
37297;SDS011;30517;51.932;4.278;2022-11-20T09:44:07;11.43;;;6.55;;
37297;SDS011;30517;51.932;4.278;2022-11-20T09:46:54;12.88;;;6.80;;
37297;SDS011;30517;51.932;4.278;2022-11-20T09:50:07;9.82;;;6.18;;
37297;SDS011;30517;51.932;4.278;2022-11-20T09:55:44;11.52;;;6.78;;
37297;SDS011;30517;51.932;4.278;2022-11-20T09:58:38;10.13;;;6.57;;
37297;SDS011;30517;51.932;4.278;2022-11-20T10:01:26;9.82;;;5.78;;
37297;SDS011;30517;51.932;4.278;2022-11-20T10:04:13;11.60;;;6.95;;
37297;SDS011;30517;51.932;4.278;2022-11-20T10:07:15;11.13;;;6.80;;
37297;SDS011;30517;51.932;4.278;2022-11-20T10:10:14;12.13;;;6.95;;
37297;SDS011;30517;51.932;4.278;2022-11-20T10:13:01;10.85;;;6.38;;
37297;SDS011;30517;51.932;4.278;2022-11-20T10:15:56;11.43;;;6.88;;
37297;SDS011;30517;51.932;4.278;2022-11-20T10:19:06;11.95;;;6.28;;
37297;SDS011;30517;51.932;4.278;2022-11-20T10:27:53;10.70;;;5.82;;
37297;SDS011;30517;51.932;4.278;2022-11-20T10:30:44;10.95;;;5.82;;
37297;SDS011;30517;51.932;4.278;2022-11-20T10:33:31;11.05;;;6.60;;
37297;SDS011;30517;51.932;4.278;2022-11-20T10:36:21;12.50;;;7.07;;
37297;SDS011;30517;51.932;4.278;2022-11-20T10:39:11;11.60;;;7.50;;
37297;SDS011;30517;51.932;4.278;2022-11-20T10:42:00;10.68;;;7.10;;
37297;SDS011;30517;51.932;4.278;2022-11-20T10:44:42;11.00;;;6.93;;
37297;SDS011;30517;51.932;4.278;2022-11-20T10:47:40;11.50;;;6.63;;
37297;SDS011;30517;51.932;4.278;2022-11-20T10:50:21;10.23;;;6.43;;
37297;SDS011;30517;51.932;4.278;2022-11-20T10:56:31;13.00;;;6.93;;
37297;SDS011;30517;51.932;4.278;2022-11-20T11:02:31;11.82;;;7.13;;
37297;SDS011;30517;51.932;4.278;2022-11-20T11:05:22;12.85;;;6.60;;
37297;SDS011;30517;51.932;4.278;2022-11-20T11:08:17;14.85;;;7.30;;
37297;SDS011;30517;51.932;4.278;2022-11-20T11:11:00;12.63;;;6.80;;
37297;SDS011;30517;51.932;4.278;2022-11-20T11:14:05;10.48;;;6.40;;
37297;SDS011;30517;51.932;4.278;2022-11-20T11:16:53;10.93;;;6.50;;
37297;SDS011;30517;51.932;4.278;2022-11-20T11:19:35;11.88;;;6.97;;
37297;SDS011;30517;51.932;4.278;2022-11-20T11:22:16;11.65;;;7.15;;
37297;SDS011;30517;51.932;4.278;2022-11-20T11:24:58;12.73;;;7.00;;
37297;SDS011;30517;51.932;4.278;2022-11-20T11:27:46;10.13;;;6.05;;
37297;SDS011;30517;51.932;4.278;2022-11-20T11:30:29;10.63;;;5.60;;
37297;SDS011;30517;51.932;4.278;2022-11-20T11:36:03;12.38;;;7.00;;
37297;SDS011;30517;51.932;4.278;2022-11-20T11:38:56;11.52;;;6.50;;
37297;SDS011;30517;51.932;4.278;2022-11-20T11:41:37;11.85;;;6.82;;
37297;SDS011;30517;51.932;4.278;2022-11-20T11:47:30;12.75;;;7.25;;
37297;SDS011;30517;51.932;4.278;2022-11-20T11:53:28;11.48;;;6.50;;
37297;SDS011;30517;51.932;4.278;2022-11-20T11:56:10;13.18;;;6.45;;
37297;SDS011;30517;51.932;4.278;2022-11-20T11:58:53;13.98;;;7.68;;
37297;SDS011;30517;51.932;4.278;2022-11-20T12:01:43;15.30;;;7.25;;
37297;SDS011;30517;51.932;4.278;2022-11-20T12:11:03;12.10;;;6.35;;
37297;SDS011;30517;51.932;4.278;2022-11-20T12:17:14;11.50;;;6.63;;
37297;SDS011;30517;51.932;4.278;2022-11-20T12:19:55;12.10;;;6.93;;
37297;SDS011;30517;51.932;4.278;2022-11-20T12:22:45;11.60;;;6.72;;
37297;SDS011;30517;51.932;4.278;2022-11-20T12:25:34;12.55;;;6.78;;
37297;SDS011;30517;51.932;4.278;2022-11-20T12:34:30;12.63;;;7.05;;
37297;SDS011;30517;51.932;4.278;2022-11-20T12:43:24;13.35;;;7.30;;
37297;SDS011;30517;51.932;4.278;2022-11-20T12:46:37;13.15;;;7.28;;
37297;SDS011;30517;51.932;4.278;2022-11-20T12:49:30;13.35;;;7.32;;
37297;SDS011;30517;51.932;4.278;2022-11-20T12:52:46;11.75;;;6.82;;
37297;SDS011;30517;51.932;4.278;2022-11-20T12:55:32;14.82;;;7.78;;
37297;SDS011;30517;51.932;4.278;2022-11-20T12:58:43;13.32;;;7.47;;
37297;SDS011;30517;51.932;4.278;2022-11-20T13:01:40;13.45;;;7.55;;
37297;SDS011;30517;51.932;4.278;2022-11-20T13:07:12;11.48;;;6.88;;
37297;SDS011;30517;51.932;4.278;2022-11-20T13:09:54;12.82;;;7.65;;
37297;SDS011;30517;51.932;4.278;2022-11-20T13:12:40;13.30;;;6.95;;
37297;SDS011;30517;51.932;4.278;2022-11-20T13:18:26;12.63;;;7.63;;
37297;SDS011;30517;51.932;4.278;2022-11-20T13:21:41;12.68;;;7.57;;
37297;SDS011;30517;51.932;4.278;2022-11-20T13:24:23;13.80;;;8.50;;
37297;SDS011;30517;51.932;4.278;2022-11-20T13:30:01;11.00;;;6.97;;
37297;SDS011;30517;51.932;4.278;2022-11-20T13:35:54;25.73;;;13.98;;
37297;SDS011;30517;51.932;4.278;2022-11-20T13:38:42;36.00;;;18.70;;
37297;SDS011;30517;51.932;4.278;2022-11-20T13:41:32;31.52;;;17.27;;
37297;SDS011;30517;51.932;4.278;2022-11-20T13:44:23;29.98;;;15.63;;
37297;SDS011;30517;51.932;4.278;2022-11-20T13:50:03;29.15;;;14.70;;
37297;SDS011;30517;51.932;4.278;2022-11-20T13:56:01;27.48;;;14.70;;
37297;SDS011;30517;51.932;4.278;2022-11-20T14:02:12;25.65;;;15.27;;
37297;SDS011;30517;51.932;4.278;2022-11-20T14:04:56;26.17;;;14.50;;
37297;SDS011;30517;51.932;4.278;2022-11-20T14:07:40;26.83;;;14.10;;
37297;SDS011;30517;51.932;4.278;2022-11-20T14:10:23;28.60;;;14.48;;
37297;SDS011;30517;51.932;4.278;2022-11-20T14:13:15;25.55;;;13.93;;
37297;SDS011;30517;51.932;4.278;2022-11-20T14:15:58;25.85;;;13.85;;
37297;SDS011;30517;51.932;4.278;2022-11-20T14:18:39;28.80;;;15.75;;
37297;SDS011;30517;51.932;4.278;2022-11-20T14:21:24;28.33;;;14.93;;
37297;SDS011;30517;51.932;4.278;2022-11-20T14:24:10;23.17;;;13.77;;
37297;SDS011;30517;51.932;4.278;2022-11-20T14:26:52;24.67;;;13.27;;
37297;SDS011;30517;51.932;4.278;2022-11-20T14:29:33;23.75;;;13.52;;
37297;SDS011;30517;51.932;4.278;2022-11-20T14:32:20;23.05;;;13.02;;
37297;SDS011;30517;51.932;4.278;2022-11-20T14:35:08;23.58;;;13.40;;
37297;SDS011;30517;51.932;4.278;2022-11-20T14:37:53;23.60;;;13.30;;
37297;SDS011;30517;51.932;4.278;2022-11-20T14:40:35;21.98;;;11.32;;
37297;SDS011;30517;51.932;4.278;2022-11-20T14:43:17;21.50;;;12.70;;
37297;SDS011;30517;51.932;4.278;2022-11-20T14:46:00;18.00;;;11.05;;
37297;SDS011;30517;51.932;4.278;2022-11-20T14:48:49;22.58;;;13.02;;
37297;SDS011;30517;51.932;4.278;2022-11-20T14:54:26;21.80;;;11.93;;
37297;SDS011;30517;51.932;4.278;2022-11-20T14:57:18;22.58;;;12.60;;
37297;SDS011;30517;51.932;4.278;2022-11-20T15:02:52;18.77;;;10.80;;
37297;SDS011;30517;51.932;4.278;2022-11-20T15:05:43;22.17;;;12.77;;
37297;SDS011;30517;51.932;4.278;2022-11-20T15:08:26;20.48;;;11.60;;
37297;SDS011;30517;51.932;4.278;2022-11-20T15:11:20;22.92;;;12.77;;
37297;SDS011;30517;51.932;4.278;2022-11-20T15:14:08;17.50;;;11.73;;
37297;SDS011;30517;51.932;4.278;2022-11-20T15:16:50;18.48;;;11.20;;
37297;SDS011;30517;51.932;4.278;2022-11-20T15:19:32;18.83;;;11.45;;
37297;SDS011;30517;51.932;4.278;2022-11-20T15:22:14;18.17;;;11.23;;
37297;SDS011;30517;51.932;4.278;2022-11-20T15:24:56;18.42;;;11.05;;
37297;SDS011;30517;51.932;4.278;2022-11-20T15:27:36;20.95;;;11.15;;
37297;SDS011;30517;51.932;4.278;2022-11-20T15:30:18;19.50;;;10.40;;
37297;SDS011;30517;51.932;4.278;2022-11-20T15:33:00;16.70;;;9.82;;
37297;SDS011;30517;51.932;4.278;2022-11-20T15:35:41;15.77;;;9.60;;
37297;SDS011;30517;51.932;4.278;2022-11-20T15:38:23;26.73;;;11.77;;
37297;SDS011;30517;51.932;4.278;2022-11-20T15:41:04;21.15;;;12.55;;
37297;SDS011;30517;51.932;4.278;2022-11-20T15:43:45;22.02;;;11.60;;
37297;SDS011;30517;51.932;4.278;2022-11-20T15:46:26;17.05;;;10.38;;
37297;SDS011;30517;51.932;4.278;2022-11-20T15:49:13;17.95;;;10.10;;
37297;SDS011;30517;51.932;4.278;2022-11-20T15:51:56;17.40;;;10.32;;
37297;SDS011;30517;51.932;4.278;2022-11-20T15:54:36;20.75;;;10.63;;
37297;SDS011;30517;51.932;4.278;2022-11-20T15:57:17;17.33;;;10.30;;
37297;SDS011;30517;51.932;4.278;2022-11-20T15:59:58;18.48;;;10.35;;
37297;SDS011;30517;51.932;4.278;2022-11-20T16:02:39;16.05;;;10.48;;
37297;SDS011;30517;51.932;4.278;2022-11-20T16:05:19;18.75;;;10.88;;
37297;SDS011;30517;51.932;4.278;2022-11-20T16:08:03;19.52;;;10.38;;
37297;SDS011;30517;51.932;4.278;2022-11-20T16:10:43;22.27;;;12.18;;
37297;SDS011;30517;51.932;4.278;2022-11-20T16:13:24;19.77;;;11.98;;
37297;SDS011;30517;51.932;4.278;2022-11-20T16:16:28;24.58;;;12.75;;
37297;SDS011;30517;51.932;4.278;2022-11-20T16:19:14;24.70;;;13.20;;
37297;SDS011;30517;51.932;4.278;2022-11-20T16:21:56;17.67;;;10.30;;
37297;SDS011;30517;51.932;4.278;2022-11-20T16:24:38;20.27;;;11.32;;
37297;SDS011;30517;51.932;4.278;2022-11-20T16:27:19;21.20;;;12.15;;
37297;SDS011;30517;51.932;4.278;2022-11-20T16:30:00;19.52;;;10.90;;
37297;SDS011;30517;51.932;4.278;2022-11-20T16:32:41;17.77;;;11.50;;
37297;SDS011;30517;51.932;4.278;2022-11-20T16:35:22;20.17;;;11.70;;
37297;SDS011;30517;51.932;4.278;2022-11-20T16:38:03;20.15;;;11.77;;
37297;SDS011;30517;51.932;4.278;2022-11-20T16:40:43;18.63;;;11.35;;
37297;SDS011;30517;51.932;4.278;2022-11-20T16:43:24;18.95;;;12.05;;
37297;SDS011;30517;51.932;4.278;2022-11-20T16:46:05;21.10;;;12.60;;
37297;SDS011;30517;51.932;4.278;2022-11-20T16:48:53;16.98;;;10.20;;
37297;SDS011;30517;51.932;4.278;2022-11-20T16:51:37;19.73;;;11.45;;
37297;SDS011;30517;51.932;4.278;2022-11-20T16:54:18;20.77;;;11.82;;
37297;SDS011;30517;51.932;4.278;2022-11-20T16:56:59;17.73;;;11.77;;
37297;SDS011;30517;51.932;4.278;2022-11-20T16:59:40;18.13;;;10.48;;
37297;SDS011;30517;51.932;4.278;2022-11-20T17:02:21;17.52;;;10.80;;
37297;SDS011;30517;51.932;4.278;2022-11-20T17:05:02;18.42;;;10.85;;
37297;SDS011;30517;51.932;4.278;2022-11-20T17:07:43;19.33;;;11.63;;
37297;SDS011;30517;51.932;4.278;2022-11-20T17:10:24;18.20;;;10.95;;
37297;SDS011;30517;51.932;4.278;2022-11-20T17:13:05;20.40;;;11.85;;
37297;SDS011;30517;51.932;4.278;2022-11-20T17:15:46;16.55;;;10.82;;
37297;SDS011;30517;51.932;4.278;2022-11-20T17:18:27;19.33;;;11.13;;
37297;SDS011;30517;51.932;4.278;2022-11-20T17:21:07;17.58;;;11.18;;
37297;SDS011;30517;51.932;4.278;2022-11-20T17:23:48;18.60;;;10.90;;
37297;SDS011;30517;51.932;4.278;2022-11-20T17:26:29;16.27;;;10.25;;
37297;SDS011;30517;51.932;4.278;2022-11-20T17:29:11;15.50;;;9.82;;
37297;SDS011;30517;51.932;4.278;2022-11-20T17:31:54;16.60;;;10.68;;
37297;SDS011;30517;51.932;4.278;2022-11-20T17:34:35;16.13;;;9.75;;
37297;SDS011;30517;51.932;4.278;2022-11-20T17:37:15;17.35;;;11.57;;